createdAt,value
2022-09-06T00:01:12.604Z,4.00
2022-09-06T00:03:42.219Z,4.15
2022-09-06T00:06:11.605Z,4.45
2022-09-06T00:08:39.762Z,4.82
2022-09-06T00:11:08.058Z,4.15
2022-09-06T00:13:36.603Z,4.35
2022-09-06T00:16:09.806Z,4.13
2022-09-06T00:18:37.638Z,4.03
2022-09-06T00:21:15.249Z,4.10
2022-09-06T00:23:43.186Z,3.92
2022-09-06T00:26:10.932Z,3.83
2022-09-06T00:28:38.759Z,4.43
2022-09-06T00:31:11.360Z,4.20
2022-09-06T00:33:39.102Z,4.15
2022-09-06T00:36:09.454Z,4.63
2022-09-06T00:38:37.592Z,3.88
2022-09-06T00:41:06.375Z,3.58
2022-09-06T00:43:34.210Z,4.22
2022-09-06T00:46:03.431Z,4.20
2022-09-06T00:48:31.728Z,3.95
2022-09-06T00:51:03.321Z,4.00
2022-09-06T00:53:33.546Z,3.90
2022-09-06T00:56:01.662Z,4.05
2022-09-06T00:58:29.644Z,4.47
2022-09-06T01:00:57.422Z,4.03
2022-09-06T01:03:26.557Z,4.22
2022-09-06T01:06:05.350Z,4.20
2022-09-06T01:08:44.363Z,3.70
2022-09-06T01:11:26.375Z,4.05
2022-09-06T01:14:01.082Z,3.67
2022-09-06T01:16:40.696Z,3.95
2022-09-06T01:19:44.042Z,3.72
2022-09-06T01:22:31.830Z,3.95
2022-09-06T01:25:27.211Z,3.83
2022-09-06T01:28:23.708Z,4.00
2022-09-06T01:30:58.717Z,4.18
2022-09-06T01:33:34.978Z,4.00
2022-09-06T01:36:06.302Z,3.80
2022-09-06T01:38:34.053Z,4.38
2022-09-06T01:41:01.827Z,4.30
2022-09-06T01:43:34.217Z,3.80
2022-09-06T01:46:08.482Z,4.63
2022-09-06T01:48:49.215Z,3.80
2022-09-06T01:51:24.647Z,3.42
2022-09-06T01:54:31.479Z,3.80
2022-09-06T01:57:13.033Z,3.75
2022-09-06T02:00:02.179Z,4.03
2022-09-06T02:02:39.083Z,3.80
2022-09-06T02:05:12.706Z,3.42
2022-09-06T02:07:43.383Z,4.03
2022-09-06T02:10:15.984Z,3.53
2022-09-06T02:12:48.617Z,3.92
2022-09-06T02:15:23.549Z,4.03
2022-09-06T02:17:58.313Z,3.95
2022-09-06T02:20:28.988Z,4.32
2022-09-06T02:23:00.808Z,4.35
2022-09-06T02:25:34.668Z,3.90
2022-09-06T02:28:02.664Z,3.75
2022-09-06T02:30:33.534Z,4.00
2022-09-06T02:33:05.851Z,4.05
2022-09-06T02:35:42.761Z,3.80
2022-09-06T02:38:10.533Z,3.85
2022-09-06T02:40:38.988Z,3.63
2022-09-06T02:43:06.827Z,3.97
2022-09-06T02:45:36.128Z,3.90
2022-09-06T02:48:04.165Z,4.00
2022-09-06T02:50:31.961Z,3.85
2022-09-06T02:53:04.802Z,4.10
2022-09-06T02:55:32.878Z,3.47
2022-09-06T02:58:00.561Z,3.40
2022-09-06T03:00:29.810Z,4.28
2022-09-06T03:02:59.088Z,3.53
2022-09-06T03:05:28.216Z,3.75
2022-09-06T03:07:56.292Z,4.10
2022-09-06T03:10:24.943Z,3.55
2022-09-06T03:12:53.095Z,3.85
2022-09-06T03:15:21.108Z,3.53
2022-09-06T03:17:48.767Z,3.50
2022-09-06T03:20:17.879Z,3.42
2022-09-06T03:22:45.529Z,3.65
2022-09-06T03:25:13.294Z,3.60
2022-09-06T03:27:41.034Z,3.47
2022-09-06T03:30:09.684Z,3.63
2022-09-06T03:32:37.556Z,3.30
2022-09-06T03:35:05.692Z,3.47
2022-09-06T03:37:34.766Z,3.20
2022-09-06T03:40:02.754Z,3.63
2022-09-06T03:42:30.848Z,3.55
2022-09-06T03:44:58.533Z,3.65
2022-09-06T03:47:26.233Z,3.83
2022-09-06T03:49:53.917Z,3.35
2022-09-06T03:52:21.672Z,3.63
2022-09-06T03:54:50.731Z,3.60
2022-09-06T03:57:18.448Z,3.45
2022-09-06T03:59:46.126Z,3.40
2022-09-06T04:02:13.948Z,3.55
2022-09-06T04:04:41.655Z,3.80
2022-09-06T04:07:09.407Z,4.25
2022-09-06T04:09:37.774Z,4.10
2022-09-06T04:12:07.133Z,3.83
2022-09-06T04:14:34.845Z,3.50
2022-09-06T04:17:02.579Z,3.28
2022-09-06T04:19:30.286Z,4.18
2022-09-06T04:21:58.034Z,3.40
2022-09-06T04:24:25.808Z,3.42
2022-09-06T04:26:53.462Z,3.42
2022-09-06T04:29:22.574Z,3.80
2022-09-06T04:31:50.347Z,3.25
2022-09-06T04:34:19.690Z,3.47
2022-09-06T04:36:48.415Z,3.85
2022-09-06T04:39:16.458Z,3.30
2022-09-06T04:41:44.145Z,3.38
2022-09-06T04:44:11.831Z,3.30
2022-09-06T04:46:43.133Z,3.50
2022-09-06T04:49:11.004Z,4.18
2022-09-06T04:51:39.674Z,4.30
2022-09-06T04:54:07.712Z,3.70
2022-09-06T04:56:35.484Z,3.92
2022-09-06T04:59:03.216Z,3.40
2022-09-06T05:01:30.966Z,3.92
2022-09-06T05:04:00.100Z,3.53
2022-09-06T05:06:27.969Z,3.47
2022-09-06T05:08:55.747Z,3.53
2022-09-06T05:11:23.709Z,3.80
2022-09-06T05:13:51.383Z,3.67
2022-09-06T05:16:19.213Z,3.72
2022-09-06T05:18:46.969Z,3.75
2022-09-06T05:21:16.076Z,3.63
2022-09-06T05:23:43.969Z,3.97
2022-09-06T05:26:11.760Z,3.45
2022-09-06T05:28:39.477Z,3.60
2022-09-06T05:31:08.861Z,3.95
2022-09-06T05:33:36.675Z,3.70
2022-09-06T05:36:04.770Z,6.50
2022-09-06T05:38:34.253Z,3.80
2022-09-06T05:41:02.149Z,3.97
2022-09-06T05:43:32.824Z,4.15
2022-09-06T05:46:00.633Z,4.30
2022-09-06T05:48:29.184Z,3.90
2022-09-06T05:51:02.533Z,4.32
2022-09-06T05:53:36.409Z,4.00
2022-09-06T05:56:05.769Z,4.07
2022-09-06T05:58:33.544Z,3.80
2022-09-06T06:01:09.356Z,3.80
2022-09-06T06:03:37.121Z,3.92
2022-09-06T06:06:04.895Z,3.47
2022-09-06T06:08:32.751Z,4.07
2022-09-06T06:11:02.363Z,3.83
2022-09-06T06:13:34.889Z,3.90
2022-09-06T06:16:03.651Z,4.07
2022-09-06T06:18:31.484Z,4.30
2022-09-06T06:21:13.096Z,4.15
2022-09-06T06:23:42.149Z,4.25
2022-09-06T06:26:12.710Z,3.75
2022-09-06T06:28:41.376Z,4.15
2022-09-06T06:34:20.831Z,3.95
2022-09-06T06:36:48.901Z,4.25
2022-09-06T06:39:16.776Z,4.30
2022-09-06T06:41:45.850Z,3.85
2022-09-06T06:44:13.530Z,4.05
2022-09-06T06:46:45.108Z,3.75
2022-09-06T06:49:17.158Z,3.67
2022-09-06T06:51:45.036Z,3.92
2022-09-06T06:54:12.688Z,3.58
2022-09-06T06:56:42.125Z,4.22
2022-09-06T06:59:11.240Z,3.85
2022-09-06T07:01:39.263Z,3.63
2022-09-06T07:04:08.675Z,3.22
2022-09-06T07:12:24.979Z,2.88
2022-09-06T07:14:54.788Z,2.90
2022-09-06T07:17:22.523Z,2.75
2022-09-06T07:22:38.157Z,2.53
2022-09-06T07:25:06.915Z,3.10
2022-09-06T07:27:50.450Z,2.60
2022-09-06T07:30:20.847Z,2.00
2022-09-06T07:32:48.619Z,2.70
2022-09-06T07:35:16.395Z,2.42
2022-09-06T07:37:44.138Z,2.28
2022-09-06T07:40:12.548Z,2.55
2022-09-06T07:42:40.262Z,2.67
2022-09-06T07:45:08.926Z,2.38
2022-09-06T07:53:15.833Z,2.03
2022-09-06T07:55:49.607Z,2.22
2022-09-06T07:58:17.290Z,2.28
2022-09-06T08:00:45.007Z,2.22
2022-09-06T08:03:14.180Z,2.45
2022-09-06T08:11:17.893Z,1.98
2022-09-06T08:13:45.968Z,2.13
2022-09-06T08:16:14.031Z,1.90
2022-09-06T08:18:43.448Z,2.50
2022-09-06T08:21:13.572Z,2.10
2022-09-06T08:23:43.718Z,1.95
2022-09-06T08:26:12.016Z,2.38
2022-09-06T08:28:39.787Z,2.20
2022-09-06T08:31:09.047Z,2.30
2022-09-06T08:33:37.573Z,2.15
2022-09-06T08:36:08.042Z,2.25
2022-09-06T08:38:35.976Z,1.95
2022-09-06T08:41:09.450Z,1.92
2022-09-06T08:43:38.122Z,2.25
2022-09-06T08:46:07.902Z,1.75
2022-09-06T08:48:39.746Z,1.90
2022-09-06T08:51:49.765Z,1.92
2022-09-06T08:54:26.584Z,1.90
2022-09-06T08:57:05.574Z,2.15
2022-09-06T08:59:39.813Z,1.65
2022-09-06T09:02:13.290Z,1.75
2022-09-06T09:04:45.398Z,2.10
2022-09-06T09:07:29.937Z,1.63
2022-09-06T09:10:03.679Z,1.40
2022-09-06T09:12:37.628Z,1.75
2022-09-06T09:15:10.430Z,1.50
2022-09-06T09:17:38.330Z,2.00
2022-09-06T09:20:08.357Z,1.77
2022-09-06T09:22:37.129Z,1.88
2022-09-06T09:25:09.491Z,1.80
2022-09-06T09:27:39.554Z,1.85
2022-09-06T09:32:56.478Z,1.77
2022-09-06T09:35:31.878Z,1.60
2022-09-06T09:38:09.524Z,1.40
2022-09-06T09:40:50.562Z,1.70
2022-09-06T09:43:21.981Z,1.75
2022-09-06T09:46:09.743Z,1.67
2022-09-06T09:48:39.069Z,1.33
2022-09-06T09:51:27.354Z,1.63
2022-09-06T09:53:57.166Z,1.45
2022-09-06T09:56:45.202Z,1.70
2022-09-06T09:59:23.173Z,1.67
2022-09-06T10:01:53.226Z,1.40
2022-09-06T10:04:44.952Z,1.42
2022-09-06T10:07:16.209Z,1.40
2022-09-06T10:09:46.377Z,1.60
2022-09-06T10:12:20.570Z,1.70
2022-09-06T10:14:51.771Z,1.88
2022-09-06T10:17:22.290Z,1.30
2022-09-06T10:19:49.956Z,1.45
2022-09-06T10:22:27.370Z,1.38
2022-09-06T10:25:28.665Z,1.50
2022-09-06T10:28:16.164Z,1.58
2022-09-06T10:31:07.284Z,1.52
2022-09-06T10:33:42.392Z,1.60
2022-09-06T10:36:10.012Z,1.83
2022-09-06T10:38:47.067Z,1.70
2022-09-06T10:41:29.603Z,1.98
2022-09-06T10:44:24.098Z,1.73
2022-09-06T10:47:01.047Z,1.73
2022-09-06T10:49:29.547Z,1.75
2022-09-06T10:52:01.936Z,1.95
2022-09-06T10:54:36.255Z,1.80
2022-09-06T11:00:04.882Z,2.20
2022-09-06T11:02:40.954Z,1.90
2022-09-06T11:10:52.405Z,1.65
2022-09-06T11:13:21.719Z,1.70
2022-09-06T11:15:57.636Z,1.40
2022-09-06T11:18:32.327Z,1.63
2022-09-06T11:21:19.367Z,1.63
2022-09-06T11:23:52.601Z,1.60
2022-09-06T11:26:31.740Z,1.80
2022-09-06T11:29:01.962Z,1.70
2022-09-06T11:34:24.692Z,1.95
2022-09-06T11:36:55.517Z,2.15
2022-09-06T11:42:40.499Z,1.83
2022-09-06T11:45:21.680Z,2.10
2022-09-06T11:47:52.370Z,2.15
2022-09-06T11:50:47.588Z,2.08
2022-09-06T11:53:17.324Z,2.25
2022-09-06T11:55:47.000Z,2.00
2022-09-06T11:58:27.802Z,1.88
2022-09-06T12:01:35.146Z,2.13
2022-09-06T12:04:09.907Z,2.05
2022-09-06T12:06:41.199Z,2.20
2022-09-06T12:09:29.574Z,2.35
2022-09-06T12:11:58.139Z,2.10
2022-09-06T12:14:32.356Z,2.20
2022-09-06T12:17:27.654Z,2.20
2022-09-06T12:20:06.711Z,2.22
2022-09-06T12:23:04.576Z,2.50
2022-09-06T12:25:54.901Z,2.15
2022-09-06T12:28:34.750Z,2.30
2022-09-06T12:31:23.032Z,2.40
2022-09-06T12:33:51.201Z,3.15
2022-09-06T12:36:23.583Z,2.63
2022-09-06T12:38:59.764Z,2.70
2022-09-06T12:41:29.814Z,2.53
2022-09-06T12:44:00.718Z,2.78
2022-09-06T12:46:31.139Z,2.90
2022-09-06T12:49:04.065Z,2.95
2022-09-06T12:51:33.379Z,2.90
2022-09-06T12:54:02.623Z,3.40
2022-09-06T12:56:32.880Z,2.97
2022-09-06T12:59:23.489Z,3.25
2022-09-06T13:01:57.235Z,2.40
2022-09-06T13:04:33.871Z,2.47
2022-09-06T13:07:04.801Z,2.63
2022-09-06T13:09:34.009Z,3.00
2022-09-06T13:12:07.402Z,2.78
2022-09-06T13:14:36.021Z,2.47
2022-09-06T13:17:03.680Z,2.40
2022-09-06T13:19:34.175Z,2.33
2022-09-06T13:22:07.349Z,2.72
2022-09-06T13:24:47.013Z,3.08
2022-09-06T13:27:25.172Z,2.58
2022-09-06T13:29:57.729Z,2.22
2022-09-06T13:32:26.902Z,3.17
2022-09-06T13:34:56.995Z,2.72
2022-09-06T13:37:27.201Z,2.42
2022-09-06T13:39:54.905Z,2.42
2022-09-06T13:42:30.572Z,2.28
2022-09-06T13:45:02.134Z,2.60
2022-09-06T13:47:31.161Z,2.63
2022-09-06T13:49:58.815Z,2.88
2022-09-06T13:52:27.812Z,2.47
2022-09-06T13:54:55.772Z,2.72
2022-09-06T13:57:24.602Z,3.00
2022-09-06T13:59:52.381Z,2.67
2022-09-06T14:02:20.930Z,2.35
2022-09-06T14:04:48.695Z,2.92
2022-09-06T14:07:16.368Z,2.85
2022-09-06T14:09:45.654Z,2.67
2022-09-06T14:12:13.438Z,3.20
2022-09-06T14:14:41.190Z,2.83
2022-09-06T14:17:09.170Z,2.20
2022-09-06T14:19:36.903Z,2.80
2022-09-06T14:22:06.874Z,2.80
2022-09-06T14:24:34.687Z,2.70
2022-09-06T14:27:05.108Z,2.70
2022-09-06T14:29:32.869Z,2.55
2022-09-06T14:32:00.481Z,2.90
2022-09-06T14:34:29.012Z,2.63
2022-09-06T14:36:56.725Z,2.42
2022-09-06T14:39:25.546Z,2.80
2022-09-06T14:41:53.916Z,2.95
2022-09-06T14:44:23.320Z,2.65
2022-09-06T14:46:53.424Z,3.10
2022-09-06T14:49:21.719Z,2.55
2022-09-06T14:51:49.449Z,2.50
2022-09-06T14:54:17.280Z,2.58
2022-09-06T14:56:45.304Z,2.78
2022-09-06T14:59:13.504Z,3.20
2022-09-06T15:01:42.782Z,3.65
2022-09-06T15:04:12.238Z,3.17
2022-09-06T15:06:44.837Z,2.85
2022-09-06T15:09:12.674Z,3.15
2022-09-06T15:11:42.764Z,3.47
2022-09-06T15:14:16.141Z,3.20
2022-09-06T15:16:45.673Z,2.90
2022-09-06T15:19:13.928Z,3.70
2022-09-06T15:21:42.013Z,3.60
2022-09-06T15:24:12.180Z,3.17
2022-09-06T15:26:40.946Z,2.78
2022-09-06T15:29:09.150Z,2.45
2022-09-06T15:31:38.015Z,2.95
2022-09-06T15:34:09.025Z,2.35
2022-09-06T15:36:37.286Z,2.92
2022-09-06T15:39:06.776Z,2.40
2022-09-06T15:41:37.048Z,3.28
2022-09-06T15:44:09.484Z,2.90
2022-09-06T15:46:49.207Z,2.90
2022-09-06T15:49:23.267Z,3.70
2022-09-06T15:51:53.470Z,3.60
2022-09-06T15:54:44.145Z,2.97
2022-09-06T15:57:13.059Z,3.20
2022-09-06T15:59:41.021Z,3.10
2022-09-06T16:02:09.536Z,3.50
2022-09-06T16:04:38.808Z,3.20
2022-09-06T16:07:06.699Z,2.85
2022-09-06T16:09:34.549Z,2.85
2022-09-06T16:12:02.274Z,3.40
2022-09-06T16:14:30.233Z,2.47
2022-09-06T16:16:58.340Z,2.65
2022-09-06T16:19:26.895Z,2.60
2022-09-06T16:21:56.016Z,3.17
2022-09-06T16:24:23.942Z,2.75
2022-09-06T16:26:51.712Z,3.38
2022-09-06T16:29:20.299Z,2.83
2022-09-06T16:31:48.712Z,3.20
2022-09-06T16:34:17.205Z,3.25
2022-09-06T16:36:45.106Z,3.10
2022-09-06T16:39:14.223Z,3.03
2022-09-06T16:41:43.586Z,3.45
2022-09-06T16:44:16.329Z,3.72
2022-09-06T16:46:45.313Z,3.60
2022-09-06T16:49:13.205Z,4.10
2022-09-06T16:51:41.053Z,3.60
2022-09-06T16:54:08.840Z,3.55
2022-09-06T16:56:38.898Z,3.85
2022-09-06T16:59:08.911Z,3.58
2022-09-06T17:01:38.600Z,3.42
2022-09-06T17:04:06.734Z,3.05
2022-09-06T17:06:42.147Z,3.10
2022-09-06T17:09:09.935Z,2.90
2022-09-06T17:11:40.269Z,2.72
2022-09-06T17:14:08.431Z,3.45
2022-09-06T17:16:53.936Z,3.10
2022-09-06T17:19:22.044Z,3.08
2022-09-06T17:21:49.766Z,2.40
2022-09-06T17:24:17.528Z,2.90
2022-09-06T17:26:46.626Z,2.70
2022-09-06T17:29:14.380Z,2.92
2022-09-06T17:31:42.100Z,2.72
2022-09-06T17:34:09.826Z,2.60
2022-09-06T17:36:38.254Z,2.45
2022-09-06T17:39:08.168Z,2.60
2022-09-06T17:41:38.936Z,2.92
2022-09-06T17:44:10.458Z,3.10
2022-09-06T17:46:47.667Z,2.63
2022-09-06T17:49:25.807Z,3.38
2022-09-06T17:51:53.855Z,2.90
2022-09-06T17:54:21.702Z,3.30
2022-09-06T17:56:49.476Z,3.83
2022-09-06T17:59:18.641Z,3.80
2022-09-06T18:01:46.676Z,3.60
2022-09-06T18:04:16.025Z,3.40
2022-09-06T18:06:46.405Z,3.15
2022-09-06T18:09:16.801Z,3.30
2022-09-06T18:11:46.560Z,3.25
2022-09-06T18:14:17.545Z,3.47
2022-09-06T18:16:49.111Z,3.70
2022-09-06T18:19:17.754Z,3.40
2022-09-06T18:21:45.692Z,3.70
2022-09-06T18:24:13.974Z,3.70
2022-09-06T18:26:42.488Z,3.45
2022-09-06T18:29:14.105Z,3.70
2022-09-06T18:31:42.857Z,3.65
2022-09-06T18:34:12.403Z,3.88
2022-09-06T18:36:40.635Z,3.70
2022-09-06T18:39:08.954Z,4.20
2022-09-06T18:41:54.333Z,4.95
2022-09-06T18:44:22.472Z,5.82
2022-09-06T18:46:50.301Z,5.63
2022-09-06T18:49:19.437Z,5.80
2022-09-06T18:51:47.520Z,5.60
2022-09-06T18:54:15.694Z,5.10
2022-09-06T18:56:44.774Z,4.00
2022-09-06T18:59:13.744Z,4.32
2022-09-06T19:01:42.762Z,4.80
2022-09-06T19:04:11.350Z,4.35
2022-09-06T19:06:42.940Z,4.55
2022-09-06T19:09:13.790Z,4.20
2022-09-06T19:11:43.449Z,4.15
2022-09-06T19:14:11.386Z,4.15
2022-09-06T19:16:39.336Z,3.85
2022-09-06T19:19:09.872Z,4.32
2022-09-06T19:21:41.740Z,4.45
2022-09-06T19:24:14.585Z,4.40
2022-09-06T19:26:44.525Z,5.03
2022-09-06T19:29:15.377Z,4.60
2022-09-06T19:31:44.287Z,4.60
2022-09-06T19:34:15.377Z,4.15
2022-09-06T19:36:44.473Z,3.88
2022-09-06T19:39:15.697Z,3.85
2022-09-06T19:41:46.635Z,4.20
2022-09-06T19:44:15.824Z,4.18
2022-09-06T19:46:45.994Z,4.32
2022-09-06T19:49:14.787Z,3.65
2022-09-06T19:51:43.828Z,3.75
2022-09-06T19:54:13.456Z,3.90
2022-09-06T19:56:41.320Z,3.60
2022-09-06T19:59:12.154Z,3.33
2022-09-06T20:01:41.769Z,4.15
2022-09-06T20:04:11.261Z,3.95
2022-09-06T20:06:39.405Z,4.25
2022-09-06T20:09:12.627Z,3.40
2022-09-06T20:11:43.051Z,3.70
2022-09-06T20:14:11.643Z,3.95
2022-09-06T20:16:42.192Z,3.95
2022-09-06T20:19:11.041Z,4.40
2022-09-06T20:24:20.631Z,4.60
2022-09-06T20:26:49.736Z,4.25
2022-09-06T20:29:17.677Z,4.50
2022-09-06T20:31:45.559Z,3.70
2022-09-06T20:34:18.087Z,3.50
2022-09-06T20:36:45.894Z,3.72
2022-09-06T20:39:14.345Z,2.95
2022-09-06T20:41:42.757Z,3.47
2022-09-06T20:44:12.073Z,2.60
2022-09-06T20:46:39.963Z,3.40
2022-09-06T20:49:08.947Z,3.30
2022-09-06T20:51:40.271Z,2.95
2022-09-06T20:54:08.114Z,3.05
2022-09-06T20:56:38.856Z,3.10
2022-09-06T20:59:08.583Z,2.63
2022-09-06T21:01:41.191Z,2.63
2022-09-06T21:04:10.510Z,2.40
2022-09-06T21:06:39.730Z,2.47
2022-09-06T21:09:09.072Z,2.50
2022-09-06T21:11:37.305Z,3.05
2022-09-06T21:14:05.666Z,2.92
2022-09-06T21:16:33.922Z,2.47
2022-09-06T21:19:16.544Z,2.90
2022-09-06T21:21:44.897Z,2.70
2022-09-06T21:24:12.767Z,2.53
2022-09-06T21:26:42.857Z,2.33
2022-09-06T21:29:10.707Z,2.45
2022-09-06T21:31:39.023Z,2.58
2022-09-06T21:34:15.499Z,2.42
2022-09-06T21:36:44.406Z,2.92
2022-09-06T21:39:13.338Z,2.42
2022-09-06T21:41:43.161Z,2.50
2022-09-06T21:44:12.099Z,2.40
2022-09-06T21:46:41.228Z,2.40
2022-09-06T21:49:12.877Z,2.63
2022-09-06T21:51:41.234Z,2.75
2022-09-06T21:54:09.094Z,2.55
2022-09-06T21:56:39.070Z,2.40
2022-09-06T21:59:07.492Z,2.85
2022-09-06T22:01:37.968Z,3.13
2022-09-06T22:04:06.349Z,3.13
2022-09-06T22:06:36.663Z,3.13
2022-09-06T22:09:08.623Z,2.92
2022-09-06T22:11:37.073Z,2.67
2022-09-06T22:14:07.475Z,2.95
2022-09-06T22:16:37.248Z,2.88
2022-09-06T22:19:06.172Z,3.58
2022-09-06T22:21:35.598Z,3.10
2022-09-06T22:24:06.380Z,2.90
2022-09-06T22:26:36.546Z,3.75
2022-09-06T22:29:06.957Z,3.00
2022-09-06T22:31:35.926Z,3.47
2022-09-06T22:34:04.014Z,3.20
2022-09-06T22:36:32.056Z,3.40
2022-09-06T22:39:01.332Z,3.00
2022-09-06T22:41:30.704Z,2.97
2022-09-06T22:44:00.689Z,3.10
2022-09-06T22:46:28.880Z,3.08
2022-09-06T22:48:57.138Z,3.83
2022-09-06T22:51:24.993Z,3.80
2022-09-06T22:53:52.739Z,4.10
2022-09-06T22:56:22.086Z,3.60
2022-09-06T22:58:49.888Z,3.65
2022-09-06T23:01:18.284Z,3.70
2022-09-06T23:03:48.010Z,3.97
2022-09-06T23:06:15.750Z,3.25
2022-09-06T23:08:43.726Z,3.30
2022-09-06T23:11:15.904Z,3.33
2022-09-06T23:13:46.970Z,3.80
2022-09-06T23:16:17.114Z,3.85
2022-09-06T23:18:45.427Z,3.50
2022-09-06T23:21:15.265Z,3.80
2022-09-06T23:23:43.650Z,3.38
2022-09-06T23:29:05.148Z,3.83
2022-09-06T23:31:33.454Z,3.90
2022-09-06T23:34:02.313Z,3.60
2022-09-06T23:36:30.611Z,3.78
2022-09-06T23:38:59.004Z,3.40
2022-09-06T23:41:26.886Z,3.40
2022-09-06T23:43:54.749Z,3.78
2022-09-06T23:46:23.922Z,3.63
2022-09-06T23:48:51.679Z,4.07
2022-09-06T23:51:19.657Z,3.95
2022-09-06T23:53:47.703Z,3.92
2022-09-06T23:56:15.742Z,4.20
2022-09-06T23:58:43.518Z,3.70
